sensor_id;sensor_type;location;lat;lon;timestamp;P1;durP1;ratioP1;P2;durP2;ratioP2
20559;SDS011;10438;51.454;6.718;2023-09-19T00:01:05;10.85;;;2.15;;
20559;SDS011;10438;51.454;6.718;2023-09-19T00:03:37;16.67;;;1.90;;
20559;SDS011;10438;51.454;6.718;2023-09-19T00:06:03;16.23;;;2.40;;
20559;SDS011;10438;51.454;6.718;2023-09-19T00:08:30;12.13;;;2.67;;
20559;SDS011;10438;51.454;6.718;2023-09-19T00:10:56;13.70;;;2.47;;
20559;SDS011;10438;51.454;6.718;2023-09-19T00:13:28;13.68;;;2.55;;
20559;SDS011;10438;51.454;6.718;2023-09-19T00:15:56;15.38;;;2.50;;
20559;SDS011;10438;51.454;6.718;2023-09-19T00:18:24;9.85;;;2.45;;
20559;SDS011;10438;51.454;6.718;2023-09-19T00:20:57;9.70;;;2.30;;
20559;SDS011;10438;51.454;6.718;2023-09-19T00:23:23;15.90;;;2.75;;
20559;SDS011;10438;51.454;6.718;2023-09-19T00:25:49;13.43;;;3.03;;
20559;SDS011;10438;51.454;6.718;2023-09-19T00:28:16;15.02;;;2.67;;
20559;SDS011;10438;51.454;6.718;2023-09-19T00:30:43;18.15;;;3.70;;
20559;SDS011;10438;51.454;6.718;2023-09-19T00:33:09;12.07;;;3.33;;
20559;SDS011;10438;51.454;6.718;2023-09-19T00:35:36;16.77;;;2.97;;
20559;SDS011;10438;51.454;6.718;2023-09-19T00:38:02;17.08;;;3.17;;
20559;SDS011;10438;51.454;6.718;2023-09-19T00:40:28;17.27;;;2.73;;
20559;SDS011;10438;51.454;6.718;2023-09-19T00:42:58;11.95;;;2.92;;
20559;SDS011;10438;51.454;6.718;2023-09-19T00:45:27;13.93;;;2.90;;
20559;SDS011;10438;51.454;6.718;2023-09-19T00:47:53;11.00;;;2.70;;
20559;SDS011;10438;51.454;6.718;2023-09-19T00:50:20;12.27;;;2.28;;
20559;SDS011;10438;51.454;6.718;2023-09-19T00:52:47;13.70;;;2.40;;
20559;SDS011;10438;51.454;6.718;2023-09-19T00:55:15;11.40;;;2.80;;
20559;SDS011;10438;51.454;6.718;2023-09-19T00:57:41;17.77;;;2.77;;
20559;SDS011;10438;51.454;6.718;2023-09-19T01:00:09;12.23;;;2.75;;
20559;SDS011;10438;51.454;6.718;2023-09-19T01:02:37;11.13;;;2.60;;
20559;SDS011;10438;51.454;6.718;2023-09-19T01:05:02;12.82;;;2.67;;
20559;SDS011;10438;51.454;6.718;2023-09-19T01:07:32;14.73;;;2.23;;
20559;SDS011;10438;51.454;6.718;2023-09-19T01:09:58;16.07;;;2.90;;
20559;SDS011;10438;51.454;6.718;2023-09-19T01:16:02;11.05;;;2.50;;
20559;SDS011;10438;51.454;6.718;2023-09-19T01:29:36;18.53;;;3.00;;
20559;SDS011;10438;51.454;6.718;2023-09-19T01:32:06;14.83;;;2.80;;
20559;SDS011;10438;51.454;6.718;2023-09-19T01:34:51;13.60;;;2.30;;
20559;SDS011;10438;51.454;6.718;2023-09-19T01:37:20;15.73;;;2.70;;
20559;SDS011;10438;51.454;6.718;2023-09-19T01:39:56;17.80;;;2.93;;
20559;SDS011;10438;51.454;6.718;2023-09-19T01:42:44;12.67;;;2.63;;
20559;SDS011;10438;51.454;6.718;2023-09-19T01:47:54;16.50;;;2.77;;
20559;SDS011;10438;51.454;6.718;2023-09-19T01:53:26;10.13;;;2.30;;
20559;SDS011;10438;51.454;6.718;2023-09-19T01:55:55;16.20;;;2.40;;
20559;SDS011;10438;51.454;6.718;2023-09-19T01:58:27;18.23;;;2.77;;
20559;SDS011;10438;51.454;6.718;2023-09-19T02:01:02;16.97;;;2.77;;
20559;SDS011;10438;51.454;6.718;2023-09-19T02:03:31;14.97;;;2.47;;
20559;SDS011;10438;51.454;6.718;2023-09-19T02:05:58;14.57;;;2.53;;
20559;SDS011;10438;51.454;6.718;2023-09-19T02:08:24;11.60;;;2.27;;
20559;SDS011;10438;51.454;6.718;2023-09-19T02:10:49;15.07;;;2.67;;
20559;SDS011;10438;51.454;6.718;2023-09-19T02:13:16;16.60;;;2.37;;
20559;SDS011;10438;51.454;6.718;2023-09-19T02:15:42;11.23;;;2.90;;
20559;SDS011;10438;51.454;6.718;2023-09-19T02:18:09;11.60;;;2.50;;
20559;SDS011;10438;51.454;6.718;2023-09-19T02:20:36;8.43;;;2.33;;
20559;SDS011;10438;51.454;6.718;2023-09-19T02:23:02;9.87;;;2.00;;
20559;SDS011;10438;51.454;6.718;2023-09-19T02:25:28;16.80;;;2.77;;
20559;SDS011;10438;51.454;6.718;2023-09-19T02:27:54;9.80;;;2.40;;
20559;SDS011;10438;51.454;6.718;2023-09-19T02:30:23;14.03;;;3.03;;
20559;SDS011;10438;51.454;6.718;2023-09-19T02:32:51;9.53;;;2.00;;
20559;SDS011;10438;51.454;6.718;2023-09-19T02:35:16;10.43;;;2.20;;
20559;SDS011;10438;51.454;6.718;2023-09-19T02:37:44;15.47;;;2.57;;
20559;SDS011;10438;51.454;6.718;2023-09-19T02:40:10;13.03;;;2.50;;
20559;SDS011;10438;51.454;6.718;2023-09-19T02:42:52;12.80;;;2.37;;
20559;SDS011;10438;51.454;6.718;2023-09-19T02:45:19;12.07;;;2.67;;
20559;SDS011;10438;51.454;6.718;2023-09-19T02:47:45;13.87;;;2.30;;
20559;SDS011;10438;51.454;6.718;2023-09-19T02:50:12;9.83;;;2.37;;
20559;SDS011;10438;51.454;6.718;2023-09-19T02:52:41;11.90;;;2.20;;
20559;SDS011;10438;51.454;6.718;2023-09-19T02:55:13;12.40;;;2.07;;
20559;SDS011;10438;51.454;6.718;2023-09-19T02:57:45;12.40;;;2.50;;
20559;SDS011;10438;51.454;6.718;2023-09-19T03:00:20;14.63;;;3.33;;
20559;SDS011;10438;51.454;6.718;2023-09-19T03:02:47;13.63;;;2.90;;
20559;SDS011;10438;51.454;6.718;2023-09-19T03:05:14;11.77;;;2.53;;
20559;SDS011;10438;51.454;6.718;2023-09-19T03:07:40;15.60;;;2.97;;
20559;SDS011;10438;51.454;6.718;2023-09-19T03:10:08;10.60;;;2.43;;
20559;SDS011;10438;51.454;6.718;2023-09-19T03:12:34;13.87;;;2.50;;
20559;SDS011;10438;51.454;6.718;2023-09-19T03:15:00;10.60;;;2.20;;
20559;SDS011;10438;51.454;6.718;2023-09-19T03:17:26;13.13;;;2.33;;
20559;SDS011;10438;51.454;6.718;2023-09-19T03:19:52;15.10;;;2.60;;
20559;SDS011;10438;51.454;6.718;2023-09-19T03:22:18;16.10;;;2.43;;
20559;SDS011;10438;51.454;6.718;2023-09-19T03:24:44;9.67;;;2.20;;
20559;SDS011;10438;51.454;6.718;2023-09-19T03:27:11;12.00;;;2.47;;
20559;SDS011;10438;51.454;6.718;2023-09-19T03:29:41;13.50;;;2.77;;
20559;SDS011;10438;51.454;6.718;2023-09-19T03:32:07;9.80;;;2.23;;
20559;SDS011;10438;51.454;6.718;2023-09-19T03:34:35;11.33;;;2.53;;
20559;SDS011;10438;51.454;6.718;2023-09-19T03:37:03;12.43;;;3.23;;
20559;SDS011;10438;51.454;6.718;2023-09-19T03:39:29;14.70;;;2.60;;
20559;SDS011;10438;51.454;6.718;2023-09-19T03:41:54;13.13;;;2.13;;
20559;SDS011;10438;51.454;6.718;2023-09-19T03:44:20;10.93;;;2.27;;
20559;SDS011;10438;51.454;6.718;2023-09-19T03:46:45;13.83;;;2.10;;
20559;SDS011;10438;51.454;6.718;2023-09-19T03:49:10;9.83;;;2.23;;
20559;SDS011;10438;51.454;6.718;2023-09-19T03:51:36;11.40;;;2.10;;
20559;SDS011;10438;51.454;6.718;2023-09-19T03:54:02;14.10;;;2.20;;
20559;SDS011;10438;51.454;6.718;2023-09-19T03:56:29;10.97;;;2.30;;
20559;SDS011;10438;51.454;6.718;2023-09-19T03:58:54;13.67;;;2.73;;
20559;SDS011;10438;51.454;6.718;2023-09-19T04:01:20;14.63;;;2.90;;
20559;SDS011;10438;51.454;6.718;2023-09-19T04:03:45;13.20;;;3.17;;
20559;SDS011;10438;51.454;6.718;2023-09-19T04:06:13;11.93;;;2.70;;
20559;SDS011;10438;51.454;6.718;2023-09-19T04:08:39;16.87;;;3.47;;
20559;SDS011;10438;51.454;6.718;2023-09-19T04:11:05;14.30;;;2.50;;
20559;SDS011;10438;51.454;6.718;2023-09-19T04:13:30;17.00;;;2.77;;
20559;SDS011;10438;51.454;6.718;2023-09-19T04:15:56;16.20;;;2.50;;
20559;SDS011;10438;51.454;6.718;2023-09-19T04:18:21;16.00;;;2.43;;
20559;SDS011;10438;51.454;6.718;2023-09-19T04:20:51;17.97;;;3.10;;
20559;SDS011;10438;51.454;6.718;2023-09-19T04:23:17;11.77;;;2.70;;
20559;SDS011;10438;51.454;6.718;2023-09-19T04:25:45;14.07;;;2.60;;
20559;SDS011;10438;51.454;6.718;2023-09-19T04:28:10;12.40;;;3.27;;
20559;SDS011;10438;51.454;6.718;2023-09-19T04:30:36;12.87;;;2.83;;
20559;SDS011;10438;51.454;6.718;2023-09-19T04:33:02;15.17;;;3.70;;
20559;SDS011;10438;51.454;6.718;2023-09-19T04:35:28;17.17;;;4.07;;
20559;SDS011;10438;51.454;6.718;2023-09-19T04:37:56;13.77;;;3.13;;
20559;SDS011;10438;51.454;6.718;2023-09-19T04:40:22;15.87;;;3.27;;
20559;SDS011;10438;51.454;6.718;2023-09-19T04:42:53;12.13;;;3.10;;
20559;SDS011;10438;51.454;6.718;2023-09-19T04:45:22;17.87;;;3.37;;
20559;SDS011;10438;51.454;6.718;2023-09-19T04:47:51;15.63;;;3.13;;
20559;SDS011;10438;51.454;6.718;2023-09-19T04:50:17;13.57;;;3.00;;
20559;SDS011;10438;51.454;6.718;2023-09-19T04:52:43;16.17;;;3.90;;
20559;SDS011;10438;51.454;6.718;2023-09-19T04:55:10;11.47;;;2.60;;
20559;SDS011;10438;51.454;6.718;2023-09-19T04:57:41;17.10;;;2.67;;
20559;SDS011;10438;51.454;6.718;2023-09-19T05:00:07;13.40;;;2.70;;
20559;SDS011;10438;51.454;6.718;2023-09-19T05:02:37;12.47;;;2.67;;
20559;SDS011;10438;51.454;6.718;2023-09-19T05:05:03;16.30;;;3.60;;
20559;SDS011;10438;51.454;6.718;2023-09-19T05:07:30;11.33;;;2.40;;
20559;SDS011;10438;51.454;6.718;2023-09-19T05:09:55;16.83;;;3.00;;
20559;SDS011;10438;51.454;6.718;2023-09-19T05:12:21;15.83;;;4.57;;
20559;SDS011;10438;51.454;6.718;2023-09-19T05:14:46;12.20;;;3.30;;
20559;SDS011;10438;51.454;6.718;2023-09-19T05:17:12;13.07;;;2.40;;
20559;SDS011;10438;51.454;6.718;2023-09-19T05:19:38;12.00;;;2.70;;
20559;SDS011;10438;51.454;6.718;2023-09-19T05:22:04;17.10;;;2.57;;
20559;SDS011;10438;51.454;6.718;2023-09-19T05:24:29;14.83;;;2.40;;
20559;SDS011;10438;51.454;6.718;2023-09-19T05:26:56;13.67;;;2.53;;
20559;SDS011;10438;51.454;6.718;2023-09-19T05:29:22;12.43;;;2.20;;
20559;SDS011;10438;51.454;6.718;2023-09-19T05:31:47;12.23;;;2.60;;
20559;SDS011;10438;51.454;6.718;2023-09-19T05:34:14;18.67;;;2.80;;
20559;SDS011;10438;51.454;6.718;2023-09-19T05:36:40;13.63;;;2.23;;
20559;SDS011;10438;51.454;6.718;2023-09-19T05:39:05;13.60;;;3.03;;
20559;SDS011;10438;51.454;6.718;2023-09-19T05:41:34;12.30;;;2.80;;
20559;SDS011;10438;51.454;6.718;2023-09-19T05:44:01;12.63;;;2.20;;
20559;SDS011;10438;51.454;6.718;2023-09-19T05:46:31;13.50;;;2.30;;
20559;SDS011;10438;51.454;6.718;2023-09-19T05:48:57;11.07;;;2.50;;
20559;SDS011;10438;51.454;6.718;2023-09-19T05:51:23;13.50;;;2.70;;
20559;SDS011;10438;51.454;6.718;2023-09-19T05:53:49;21.47;;;2.80;;
20559;SDS011;10438;51.454;6.718;2023-09-19T05:56:15;15.40;;;3.07;;
20559;SDS011;10438;51.454;6.718;2023-09-19T05:58:43;15.70;;;2.97;;
20559;SDS011;10438;51.454;6.718;2023-09-19T06:01:09;14.00;;;2.63;;
20559;SDS011;10438;51.454;6.718;2023-09-19T06:03:35;12.33;;;2.40;;
20559;SDS011;10438;51.454;6.718;2023-09-19T06:06:01;18.00;;;2.47;;
20559;SDS011;10438;51.454;6.718;2023-09-19T06:08:27;12.03;;;2.50;;
20559;SDS011;10438;51.454;6.718;2023-09-19T06:10:53;15.17;;;2.53;;
20559;SDS011;10438;51.454;6.718;2023-09-19T06:13:19;15.50;;;2.40;;
20559;SDS011;10438;51.454;6.718;2023-09-19T06:15:45;12.73;;;2.07;;
20559;SDS011;10438;51.454;6.718;2023-09-19T06:18:12;16.63;;;2.70;;
20559;SDS011;10438;51.454;6.718;2023-09-19T06:20:44;15.30;;;2.55;;
20559;SDS011;10438;51.454;6.718;2023-09-19T06:23:13;10.67;;;2.60;;
20559;SDS011;10438;51.454;6.718;2023-09-19T06:25:39;12.20;;;2.87;;
20559;SDS011;10438;51.454;6.718;2023-09-19T06:28:05;11.77;;;2.37;;
20559;SDS011;10438;51.454;6.718;2023-09-19T06:30:33;9.43;;;2.57;;
20559;SDS011;10438;51.454;6.718;2023-09-19T06:33:00;12.87;;;3.17;;
20559;SDS011;10438;51.454;6.718;2023-09-19T06:35:26;11.87;;;2.93;;
20559;SDS011;10438;51.454;6.718;2023-09-19T06:37:54;16.30;;;4.17;;
20559;SDS011;10438;51.454;6.718;2023-09-19T06:40:22;9.70;;;3.10;;
20559;SDS011;10438;51.454;6.718;2023-09-19T06:42:50;11.13;;;2.33;;
20559;SDS011;10438;51.454;6.718;2023-09-19T06:45:17;13.50;;;2.20;;
20559;SDS011;10438;51.454;6.718;2023-09-19T06:47:44;13.87;;;2.23;;
20559;SDS011;10438;51.454;6.718;2023-09-19T06:50:16;14.57;;;2.80;;
20559;SDS011;10438;51.454;6.718;2023-09-19T06:52:47;18.57;;;3.40;;
20559;SDS011;10438;51.454;6.718;2023-09-19T06:55:19;14.60;;;2.97;;
20559;SDS011;10438;51.454;6.718;2023-09-19T06:57:46;13.40;;;2.90;;
20559;SDS011;10438;51.454;6.718;2023-09-19T07:00:12;12.53;;;2.23;;
20559;SDS011;10438;51.454;6.718;2023-09-19T07:05:22;15.80;;;2.40;;
20559;SDS011;10438;51.454;6.718;2023-09-19T07:07:48;13.53;;;2.53;;
20559;SDS011;10438;51.454;6.718;2023-09-19T07:10:13;14.47;;;2.80;;
20559;SDS011;10438;51.454;6.718;2023-09-19T07:12:39;14.87;;;3.50;;
20559;SDS011;10438;51.454;6.718;2023-09-19T07:15:06;15.65;;;2.85;;
20559;SDS011;10438;51.454;6.718;2023-09-19T07:17:32;15.63;;;3.22;;
20559;SDS011;10438;51.454;6.718;2023-09-19T07:19:58;14.98;;;2.50;;
20559;SDS011;10438;51.454;6.718;2023-09-19T07:22:24;13.38;;;2.92;;
20559;SDS011;10438;51.454;6.718;2023-09-19T07:24:51;16.38;;;2.97;;
20559;SDS011;10438;51.454;6.718;2023-09-19T07:27:17;12.95;;;3.60;;
20559;SDS011;10438;51.454;6.718;2023-09-19T07:29:42;17.00;;;2.70;;
20559;SDS011;10438;51.454;6.718;2023-09-19T07:32:08;24.05;;;3.47;;
20559;SDS011;10438;51.454;6.718;2023-09-19T07:34:36;12.55;;;2.53;;
20559;SDS011;10438;51.454;6.718;2023-09-19T07:37:04;15.15;;;3.10;;
20559;SDS011;10438;51.454;6.718;2023-09-19T07:39:29;13.50;;;2.40;;
20559;SDS011;10438;51.454;6.718;2023-09-19T07:41:55;16.05;;;2.63;;
20559;SDS011;10438;51.454;6.718;2023-09-19T07:44:21;15.20;;;2.78;;
20559;SDS011;10438;51.454;6.718;2023-09-19T07:46:47;15.98;;;3.50;;
20559;SDS011;10438;51.454;6.718;2023-09-19T07:49:15;22.08;;;3.63;;
20559;SDS011;10438;51.454;6.718;2023-09-19T07:51:42;14.85;;;3.22;;
20559;SDS011;10438;51.454;6.718;2023-09-19T07:54:11;14.68;;;3.00;;
20559;SDS011;10438;51.454;6.718;2023-09-19T07:56:37;23.73;;;3.15;;
20559;SDS011;10438;51.454;6.718;2023-09-19T07:59:03;15.30;;;2.58;;
20559;SDS011;10438;51.454;6.718;2023-09-19T08:01:28;12.90;;;2.28;;
20559;SDS011;10438;51.454;6.718;2023-09-19T08:03:54;9.73;;;2.50;;
20559;SDS011;10438;51.454;6.718;2023-09-19T08:06:19;18.13;;;3.17;;
20559;SDS011;10438;51.454;6.718;2023-09-19T08:08:46;18.85;;;2.75;;
20559;SDS011;10438;51.454;6.718;2023-09-19T08:11:12;14.68;;;3.08;;
20559;SDS011;10438;51.454;6.718;2023-09-19T08:13:41;16.35;;;3.05;;
20559;SDS011;10438;51.454;6.718;2023-09-19T08:16:10;21.55;;;4.82;;
20559;SDS011;10438;51.454;6.718;2023-09-19T08:18:36;15.43;;;4.82;;
20559;SDS011;10438;51.454;6.718;2023-09-19T08:21:05;15.13;;;3.22;;
20559;SDS011;10438;51.454;6.718;2023-09-19T08:23:33;17.92;;;3.38;;
20559;SDS011;10438;51.454;6.718;2023-09-19T08:25:58;13.45;;;2.80;;
20559;SDS011;10438;51.454;6.718;2023-09-19T08:28:28;18.77;;;2.88;;
20559;SDS011;10438;51.454;6.718;2023-09-19T08:30:55;18.80;;;3.55;;
20559;SDS011;10438;51.454;6.718;2023-09-19T08:33:20;23.50;;;5.07;;
20559;SDS011;10438;51.454;6.718;2023-09-19T08:35:46;12.00;;;2.70;;
20559;SDS011;10438;51.454;6.718;2023-09-19T08:38:11;14.57;;;2.92;;
20559;SDS011;10438;51.454;6.718;2023-09-19T08:40:40;16.00;;;3.75;;
20559;SDS011;10438;51.454;6.718;2023-09-19T08:43:07;14.85;;;2.75;;
20559;SDS011;10438;51.454;6.718;2023-09-19T08:45:33;16.23;;;3.30;;
20559;SDS011;10438;51.454;6.718;2023-09-19T08:48:12;15.65;;;3.25;;
20559;SDS011;10438;51.454;6.718;2023-09-19T08:50:51;10.40;;;2.42;;
20559;SDS011;10438;51.454;6.718;2023-09-19T08:53:26;15.35;;;2.85;;
20559;SDS011;10438;51.454;6.718;2023-09-19T08:55:54;11.52;;;3.42;;
20559;SDS011;10438;51.454;6.718;2023-09-19T08:58:22;14.13;;;2.85;;
20559;SDS011;10438;51.454;6.718;2023-09-19T09:00:54;13.65;;;2.58;;
20559;SDS011;10438;51.454;6.718;2023-09-19T09:03:21;11.73;;;2.90;;
20559;SDS011;10438;51.454;6.718;2023-09-19T09:05:48;14.20;;;3.08;;
20559;SDS011;10438;51.454;6.718;2023-09-19T09:08:15;13.68;;;3.17;;
20559;SDS011;10438;51.454;6.718;2023-09-19T09:10:44;12.73;;;2.92;;
20559;SDS011;10438;51.454;6.718;2023-09-19T09:13:09;15.07;;;2.88;;
20559;SDS011;10438;51.454;6.718;2023-09-19T09:15:39;10.63;;;2.65;;
20559;SDS011;10438;51.454;6.718;2023-09-19T09:18:06;14.50;;;2.58;;
20559;SDS011;10438;51.454;6.718;2023-09-19T09:20:32;16.48;;;2.90;;
20559;SDS011;10438;51.454;6.718;2023-09-19T09:22:57;12.82;;;3.20;;
20559;SDS011;10438;51.454;6.718;2023-09-19T09:25:47;19.08;;;2.33;;
20559;SDS011;10438;51.454;6.718;2023-09-19T09:28:18;11.95;;;2.65;;
20559;SDS011;10438;51.454;6.718;2023-09-19T09:30:45;15.20;;;2.80;;
20559;SDS011;10438;51.454;6.718;2023-09-19T09:33:12;14.43;;;3.03;;
20559;SDS011;10438;51.454;6.718;2023-09-19T09:35:51;14.48;;;2.60;;
20559;SDS011;10438;51.454;6.718;2023-09-19T09:38:26;16.15;;;2.95;;
20559;SDS011;10438;51.454;6.718;2023-09-19T09:40:53;15.00;;;2.75;;
20559;SDS011;10438;51.454;6.718;2023-09-19T09:43:32;18.00;;;3.58;;
20559;SDS011;10438;51.454;6.718;2023-09-19T09:46:07;11.13;;;2.65;;
20559;SDS011;10438;51.454;6.718;2023-09-19T09:51:41;12.45;;;2.50;;
20559;SDS011;10438;51.454;6.718;2023-09-19T09:54:22;17.45;;;3.58;;
20559;SDS011;10438;51.454;6.718;2023-09-19T09:56:58;15.05;;;3.00;;
20559;SDS011;10438;51.454;6.718;2023-09-19T09:59:52;22.35;;;3.33;;
20559;SDS011;10438;51.454;6.718;2023-09-19T10:04:57;12.95;;;3.28;;
20559;SDS011;10438;51.454;6.718;2023-09-19T10:07:39;14.02;;;2.83;;
20559;SDS011;10438;51.454;6.718;2023-09-19T10:10:07;16.17;;;2.85;;
20559;SDS011;10438;51.454;6.718;2023-09-19T10:12:46;12.27;;;2.70;;
20559;SDS011;10438;51.454;6.718;2023-09-19T10:15:13;11.82;;;2.00;;
20559;SDS011;10438;51.454;6.718;2023-09-19T10:17:44;12.23;;;2.17;;
20559;SDS011;10438;51.454;6.718;2023-09-19T10:20:17;12.95;;;2.38;;
20559;SDS011;10438;51.454;6.718;2023-09-19T10:23:04;9.77;;;2.03;;
20559;SDS011;10438;51.454;6.718;2023-09-19T10:25:37;11.18;;;2.30;;
20559;SDS011;10438;51.454;6.718;2023-09-19T10:28:08;13.95;;;2.60;;
20559;SDS011;10438;51.454;6.718;2023-09-19T10:30:38;12.70;;;2.40;;
20559;SDS011;10438;51.454;6.718;2023-09-19T10:33:14;11.85;;;2.67;;
20559;SDS011;10438;51.454;6.718;2023-09-19T10:35:44;11.73;;;2.80;;
20559;SDS011;10438;51.454;6.718;2023-09-19T10:38:11;11.52;;;3.15;;
20559;SDS011;10438;51.454;6.718;2023-09-19T10:40:44;19.70;;;3.05;;
20559;SDS011;10438;51.454;6.718;2023-09-19T10:43:16;18.42;;;2.97;;
20559;SDS011;10438;51.454;6.718;2023-09-19T10:45:46;9.77;;;2.53;;
20559;SDS011;10438;51.454;6.718;2023-09-19T10:48:17;9.93;;;3.30;;
20559;SDS011;10438;51.454;6.718;2023-09-19T10:53:20;11.82;;;2.40;;
20559;SDS011;10438;51.454;6.718;2023-09-19T10:55:49;12.25;;;3.33;;
20559;SDS011;10438;51.454;6.718;2023-09-19T10:58:29;18.63;;;4.35;;
20559;SDS011;10438;51.454;6.718;2023-09-19T11:00:59;11.85;;;4.13;;
20559;SDS011;10438;51.454;6.718;2023-09-19T11:03:37;15.88;;;3.88;;
20559;SDS011;10438;51.454;6.718;2023-09-19T11:06:11;12.00;;;2.42;;
20559;SDS011;10438;51.454;6.718;2023-09-19T11:30:44;13.18;;;2.60;;
20559;SDS011;10438;51.454;6.718;2023-09-19T11:43:50;9.77;;;2.65;;
20559;SDS011;10438;51.454;6.718;2023-09-19T11:49:17;13.20;;;2.95;;
20559;SDS011;10438;51.454;6.718;2023-09-19T11:51:50;14.13;;;2.28;;
20559;SDS011;10438;51.454;6.718;2023-09-19T11:54:16;9.70;;;2.53;;
20559;SDS011;10438;51.454;6.718;2023-09-19T11:56:55;9.88;;;2.67;;
20559;SDS011;10438;51.454;6.718;2023-09-19T11:59:23;9.88;;;2.00;;
20559;SDS011;10438;51.454;6.718;2023-09-19T12:01:53;12.57;;;2.42;;
20559;SDS011;10438;51.454;6.718;2023-09-19T12:04:43;10.13;;;2.20;;
20559;SDS011;10438;51.454;6.718;2023-09-19T12:07:11;12.13;;;2.55;;
20559;SDS011;10438;51.454;6.718;2023-09-19T12:09:44;12.52;;;3.22;;
20559;SDS011;10438;51.454;6.718;2023-09-19T12:12:23;10.38;;;2.70;;
20559;SDS011;10438;51.454;6.718;2023-09-19T12:14:54;12.23;;;2.30;;
20559;SDS011;10438;51.454;6.718;2023-09-19T12:17:22;11.70;;;2.78;;
20559;SDS011;10438;51.454;6.718;2023-09-19T12:19:52;10.80;;;2.15;;
20559;SDS011;10438;51.454;6.718;2023-09-19T12:22:18;13.02;;;2.63;;
20559;SDS011;10438;51.454;6.718;2023-09-19T12:24:45;8.93;;;2.30;;
20559;SDS011;10438;51.454;6.718;2023-09-19T12:27:11;11.90;;;2.72;;
20559;SDS011;10438;51.454;6.718;2023-09-19T12:29:42;10.13;;;2.67;;
20559;SDS011;10438;51.454;6.718;2023-09-19T12:32:08;8.68;;;2.38;;
20559;SDS011;10438;51.454;6.718;2023-09-19T12:34:33;9.27;;;2.65;;
20559;SDS011;10438;51.454;6.718;2023-09-19T12:37:11;10.48;;;2.70;;
20559;SDS011;10438;51.454;6.718;2023-09-19T12:39:44;12.32;;;2.38;;
20559;SDS011;10438;51.454;6.718;2023-09-19T12:42:24;7.80;;;2.05;;
20559;SDS011;10438;51.454;6.718;2023-09-19T12:44:56;10.85;;;2.17;;
20559;SDS011;10438;51.454;6.718;2023-09-19T12:47:25;10.13;;;1.95;;
20559;SDS011;10438;51.454;6.718;2023-09-19T12:50:08;9.20;;;2.30;;
20559;SDS011;10438;51.454;6.718;2023-09-19T12:52:40;10.65;;;2.17;;
20559;SDS011;10438;51.454;6.718;2023-09-19T13:00:43;11.82;;;2.95;;
20559;SDS011;10438;51.454;6.718;2023-09-19T13:05:59;13.35;;;3.70;;
20559;SDS011;10438;51.454;6.718;2023-09-19T13:08:36;6.55;;;2.20;;
20559;SDS011;10438;51.454;6.718;2023-09-19T13:13:32;8.50;;;1.80;;
20559;SDS011;10438;51.454;6.718;2023-09-19T13:16:01;6.75;;;1.92;;
20559;SDS011;10438;51.454;6.718;2023-09-19T13:18:27;15.18;;;2.25;;
20559;SDS011;10438;51.454;6.718;2023-09-19T13:21:10;8.75;;;1.90;;
20559;SDS011;10438;51.454;6.718;2023-09-19T13:23:47;9.20;;;1.90;;
20559;SDS011;10438;51.454;6.718;2023-09-19T13:26:17;7.45;;;1.50;;
20559;SDS011;10438;51.454;6.718;2023-09-19T13:28:43;5.60;;;1.60;;
20559;SDS011;10438;51.454;6.718;2023-09-19T13:31:09;10.13;;;1.90;;
20559;SDS011;10438;51.454;6.718;2023-09-19T13:33:48;8.00;;;2.05;;
20559;SDS011;10438;51.454;6.718;2023-09-19T13:36:15;9.50;;;2.20;;
20559;SDS011;10438;51.454;6.718;2023-09-19T13:38:41;10.98;;;1.70;;
20559;SDS011;10438;51.454;6.718;2023-09-19T13:41:09;7.60;;;1.60;;
20559;SDS011;10438;51.454;6.718;2023-09-19T13:43:36;8.57;;;1.90;;
20559;SDS011;10438;51.454;6.718;2023-09-19T13:46:02;5.50;;;1.98;;
20559;SDS011;10438;51.454;6.718;2023-09-19T13:48:28;6.53;;;1.60;;
20559;SDS011;10438;51.454;6.718;2023-09-19T13:50:54;7.45;;;1.35;;
20559;SDS011;10438;51.454;6.718;2023-09-19T13:53:21;11.00;;;2.03;;
20559;SDS011;10438;51.454;6.718;2023-09-19T13:55:46;10.98;;;2.40;;
20559;SDS011;10438;51.454;6.718;2023-09-19T13:58:13;11.13;;;1.88;;
20559;SDS011;10438;51.454;6.718;2023-09-19T14:00:39;9.35;;;1.77;;
20559;SDS011;10438;51.454;6.718;2023-09-19T14:03:05;8.73;;;1.70;;
20559;SDS011;10438;51.454;6.718;2023-09-19T14:05:30;6.82;;;1.55;;
20559;SDS011;10438;51.454;6.718;2023-09-19T14:07:56;8.45;;;1.08;;
20559;SDS011;10438;51.454;6.718;2023-09-19T14:10:23;7.15;;;1.33;;
20559;SDS011;10438;51.454;6.718;2023-09-19T14:12:49;5.90;;;1.33;;
20559;SDS011;10438;51.454;6.718;2023-09-19T14:15:14;7.00;;;1.60;;
20559;SDS011;10438;51.454;6.718;2023-09-19T14:17:40;7.88;;;1.88;;
20559;SDS011;10438;51.454;6.718;2023-09-19T14:20:12;5.38;;;1.25;;
20559;SDS011;10438;51.454;6.718;2023-09-19T14:22:39;6.20;;;1.70;;
20559;SDS011;10438;51.454;6.718;2023-09-19T14:25:04;7.80;;;1.67;;
20559;SDS011;10438;51.454;6.718;2023-09-19T14:27:30;8.57;;;1.98;;
20559;SDS011;10438;51.454;6.718;2023-09-19T14:29:56;7.18;;;1.50;;
20559;SDS011;10438;51.454;6.718;2023-09-19T14:32:22;9.48;;;1.38;;
20559;SDS011;10438;51.454;6.718;2023-09-19T14:34:48;5.28;;;1.10;;
20559;SDS011;10438;51.454;6.718;2023-09-19T14:37:14;3.75;;;1.20;;
20559;SDS011;10438;51.454;6.718;2023-09-19T14:39:41;7.55;;;1.42;;
20559;SDS011;10438;51.454;6.718;2023-09-19T14:42:09;8.85;;;1.00;;
20559;SDS011;10438;51.454;6.718;2023-09-19T14:44:35;4.72;;;1.23;;
20559;SDS011;10438;51.454;6.718;2023-09-19T14:47:02;6.80;;;0.90;;
20559;SDS011;10438;51.454;6.718;2023-09-19T14:49:29;5.93;;;1.40;;
20559;SDS011;10438;51.454;6.718;2023-09-19T14:51:55;10.35;;;1.27;;
20559;SDS011;10438;51.454;6.718;2023-09-19T14:54:20;6.68;;;1.13;;
20559;SDS011;10438;51.454;6.718;2023-09-19T14:56:46;5.70;;;1.52;;
20559;SDS011;10438;51.454;6.718;2023-09-19T14:59:18;3.30;;;1.10;;
20559;SDS011;10438;51.454;6.718;2023-09-19T15:01:45;8.32;;;1.70;;
20559;SDS011;10438;51.454;6.718;2023-09-19T15:04:10;10.18;;;2.08;;
20559;SDS011;10438;51.454;6.718;2023-09-19T15:06:36;8.50;;;2.35;;
20559;SDS011;10438;51.454;6.718;2023-09-19T15:09:02;9.02;;;1.95;;
20559;SDS011;10438;51.454;6.718;2023-09-19T15:11:29;7.50;;;1.60;;
20559;SDS011;10438;51.454;6.718;2023-09-19T15:13:55;4.85;;;1.08;;
20559;SDS011;10438;51.454;6.718;2023-09-19T15:16:21;4.90;;;1.60;;
20559;SDS011;10438;51.454;6.718;2023-09-19T15:18:47;4.93;;;1.65;;
20559;SDS011;10438;51.454;6.718;2023-09-19T15:21:13;4.03;;;1.15;;
20559;SDS011;10438;51.454;6.718;2023-09-19T15:23:40;6.25;;;1.20;;
20559;SDS011;10438;51.454;6.718;2023-09-19T15:26:07;3.10;;;1.15;;
20559;SDS011;10438;51.454;6.718;2023-09-19T15:28:34;9.60;;;1.30;;
20559;SDS011;10438;51.454;6.718;2023-09-19T15:31:00;8.00;;;1.50;;
20559;SDS011;10438;51.454;6.718;2023-09-19T15:33:33;6.22;;;1.15;;
20559;SDS011;10438;51.454;6.718;2023-09-19T15:36:00;6.03;;;1.67;;
20559;SDS011;10438;51.454;6.718;2023-09-19T15:41:22;3.60;;;1.10;;
20559;SDS011;10438;51.454;6.718;2023-09-19T15:43:48;5.28;;;1.10;;
20559;SDS011;10438;51.454;6.718;2023-09-19T15:46:14;5.97;;;1.33;;
20559;SDS011;10438;51.454;6.718;2023-09-19T15:48:40;7.57;;;1.17;;
20559;SDS011;10438;51.454;6.718;2023-09-19T15:51:06;4.90;;;1.20;;
20559;SDS011;10438;51.454;6.718;2023-09-19T15:53:41;5.13;;;1.27;;
20559;SDS011;10438;51.454;6.718;2023-09-19T15:56:10;8.45;;;1.98;;
20559;SDS011;10438;51.454;6.718;2023-09-19T15:58:36;6.03;;;1.13;;
20559;SDS011;10438;51.454;6.718;2023-09-19T16:01:05;6.07;;;1.30;;
20559;SDS011;10438;51.454;6.718;2023-09-19T16:03:33;8.10;;;1.38;;
20559;SDS011;10438;51.454;6.718;2023-09-19T16:06:07;6.75;;;1.30;;